createdAt,value
2022-08-23T00:01:34.821Z,6.30
2022-08-23T00:04:11.616Z,8.10
2022-08-23T00:06:39.970Z,7.15
2022-08-23T00:09:07.354Z,6.80
2022-08-23T00:11:45.410Z,8.80
2022-08-23T00:14:17.928Z,6.80
2022-08-23T00:16:45.739Z,5.55
2022-08-23T00:19:16.838Z,5.45
2022-08-23T00:21:45.649Z,8.23
2022-08-23T00:24:14.214Z,8.55
2022-08-23T00:26:56.417Z,7.80
2022-08-23T00:29:26.324Z,5.88
2022-08-23T00:31:54.055Z,6.70
2022-08-23T00:34:22.132Z,8.50
2022-08-23T00:36:50.260Z,7.78
2022-08-23T00:39:18.851Z,6.60
2022-08-23T00:41:47.746Z,6.70
2022-08-23T00:44:52.482Z,6.03
2022-08-23T00:47:40.100Z,5.47
2022-08-23T00:50:23.616Z,12.27
2022-08-23T00:53:03.767Z,6.55
2022-08-23T00:55:32.739Z,5.57
2022-08-23T00:58:00.639Z,6.57
2022-08-23T01:00:28.985Z,5.18
2022-08-23T01:02:57.984Z,4.93
2022-08-23T01:05:31.549Z,5.10
2022-08-23T01:08:00.323Z,4.53
2022-08-23T01:10:33.960Z,6.57
2022-08-23T01:13:20.070Z,6.07
2022-08-23T01:15:51.961Z,7.15
2022-08-23T01:18:23.908Z,6.35
2022-08-23T01:20:57.142Z,6.60
2022-08-23T01:23:50.151Z,8.43
2022-08-23T01:26:21.763Z,4.47
2022-08-23T01:28:50.691Z,8.98
2022-08-23T01:31:18.862Z,7.22
2022-08-23T01:33:56.952Z,6.38
2022-08-23T01:36:24.595Z,7.22
2022-08-23T01:38:52.819Z,5.63
2022-08-23T01:41:20.272Z,4.38
2022-08-23T01:43:47.858Z,6.32
2022-08-23T01:46:20.435Z,7.10
2022-08-23T01:48:49.223Z,5.72
2022-08-23T01:51:19.050Z,7.15
2022-08-23T01:53:46.891Z,6.95
2022-08-23T01:56:20.134Z,6.82
2022-08-23T01:58:56.941Z,8.77
2022-08-23T02:01:30.034Z,8.82
2022-08-23T02:04:00.793Z,6.68
2022-08-23T02:06:32.926Z,5.15
2022-08-23T02:09:01.457Z,5.70
2022-08-23T02:11:40.718Z,6.50
2022-08-23T02:14:12.217Z,5.05
2022-08-23T02:17:04.573Z,6.47
2022-08-23T02:19:34.618Z,3.78
2022-08-23T02:22:03.650Z,6.00
2022-08-23T02:24:31.950Z,5.13
2022-08-23T02:27:04.318Z,6.68
2022-08-23T02:29:39.374Z,7.15
2022-08-23T02:32:10.299Z,6.93
2022-08-23T02:34:40.282Z,5.65
2022-08-23T02:37:10.220Z,9.38
2022-08-23T02:39:38.867Z,5.72
2022-08-23T02:42:08.139Z,6.57
2022-08-23T02:44:40.939Z,8.25
2022-08-23T02:47:09.192Z,5.32
2022-08-23T02:49:38.689Z,5.07
2022-08-23T02:52:07.379Z,5.10
2022-08-23T02:54:36.180Z,4.70
2022-08-23T02:57:03.750Z,5.45
2022-08-23T02:59:31.782Z,4.53
2022-08-23T03:01:59.372Z,4.70
2022-08-23T03:04:31.788Z,5.88
2022-08-23T03:06:58.859Z,6.57
2022-08-23T03:09:26.302Z,5.25
2022-08-23T03:11:53.562Z,8.35
2022-08-23T03:14:22.381Z,4.47
2022-08-23T03:16:49.831Z,7.65
2022-08-23T03:19:17.397Z,4.47
2022-08-23T03:21:45.336Z,6.47
2022-08-23T03:24:15.550Z,5.22
2022-08-23T03:26:44.478Z,5.85
2022-08-23T03:29:12.938Z,6.53
2022-08-23T03:31:57.181Z,4.90
2022-08-23T03:34:26.075Z,5.70
2022-08-23T03:36:54.125Z,5.60
2022-08-23T03:39:21.260Z,8.23
2022-08-23T03:41:48.702Z,6.47
2022-08-23T03:44:16.045Z,7.10
2022-08-23T03:46:44.593Z,3.70
2022-08-23T03:49:12.144Z,5.38
2022-08-23T03:51:51.330Z,6.20
2022-08-23T03:54:18.492Z,7.32
2022-08-23T03:56:55.856Z,7.55
2022-08-23T03:59:24.309Z,6.40
2022-08-23T04:01:51.577Z,6.47
2022-08-23T04:04:18.757Z,5.38
2022-08-23T04:07:06.019Z,7.13
2022-08-23T04:09:34.071Z,4.93
2022-08-23T04:12:01.412Z,5.10
2022-08-23T04:14:29.266Z,7.15
2022-08-23T04:16:56.816Z,5.40
2022-08-23T04:19:24.116Z,6.00
2022-08-23T04:22:04.211Z,6.75
2022-08-23T04:24:39.940Z,8.82
2022-08-23T04:27:07.420Z,6.72
2022-08-23T04:29:35.122Z,6.88
2022-08-23T04:32:07.614Z,5.13
2022-08-23T04:34:40.391Z,8.45
2022-08-23T04:37:09.675Z,6.20
2022-08-23T04:39:59.124Z,7.15
2022-08-23T04:42:32.101Z,8.93
2022-08-23T04:45:00.078Z,8.13
2022-08-23T04:47:27.399Z,6.20
2022-08-23T04:49:57.364Z,7.63
2022-08-23T04:52:24.660Z,6.03
2022-08-23T04:54:52.704Z,7.93
2022-08-23T04:57:43.681Z,5.05
2022-08-23T05:00:15.595Z,6.90
2022-08-23T05:02:50.039Z,7.68
2022-08-23T05:05:17.699Z,6.22
2022-08-23T05:07:45.724Z,5.03
2022-08-23T05:10:16.314Z,7.25
2022-08-23T05:12:48.720Z,4.90
2022-08-23T05:15:18.072Z,9.48
2022-08-23T05:17:48.504Z,7.45
2022-08-23T05:20:17.094Z,6.32
2022-08-23T05:22:44.703Z,7.35
2022-08-23T05:25:58.959Z,7.30
2022-08-23T05:28:33.572Z,5.57
2022-08-23T05:31:06.196Z,6.65
2022-08-23T05:33:45.671Z,5.97
2022-08-23T05:36:15.360Z,8.65
2022-08-23T05:38:43.727Z,6.13
2022-08-23T05:41:12.525Z,6.10
2022-08-23T05:43:40.216Z,8.73
2022-08-23T05:46:13.247Z,6.55
2022-08-23T05:48:47.388Z,10.73
2022-08-23T05:51:24.142Z,7.28
2022-08-23T05:53:53.722Z,7.13
2022-08-23T05:56:33.657Z,7.47
2022-08-23T05:59:05.982Z,8.60
2022-08-23T06:01:41.016Z,5.63
2022-08-23T06:04:19.675Z,6.88
2022-08-23T06:06:48.778Z,7.55
2022-08-23T06:09:18.316Z,9.80
2022-08-23T06:11:47.211Z,8.38
2022-08-23T06:14:15.912Z,8.15
2022-08-23T06:16:46.826Z,11.20
2022-08-23T06:19:18.185Z,10.35
2022-08-23T06:22:03.993Z,12.15
2022-08-23T06:24:36.464Z,7.78
2022-08-23T06:27:13.281Z,14.05
2022-08-23T06:29:41.470Z,8.43
2022-08-23T06:32:37.891Z,11.98
2022-08-23T06:35:37.953Z,10.70
2022-08-23T06:38:15.773Z,10.38
2022-08-23T06:40:51.960Z,10.48
2022-08-23T06:43:43.178Z,10.65
2022-08-23T06:46:38.740Z,10.85
2022-08-23T06:49:08.151Z,11.73
2022-08-23T06:51:42.159Z,13.63
2022-08-23T06:54:20.783Z,13.57
2022-08-23T06:56:48.818Z,11.10
2022-08-23T06:59:20.350Z,13.70
2022-08-23T07:02:14.948Z,13.15
2022-08-23T07:04:57.633Z,14.20
2022-08-23T07:08:04.142Z,14.57
2022-08-23T07:10:31.398Z,14.13
2022-08-23T07:12:58.685Z,14.52
2022-08-23T07:15:25.831Z,13.85
2022-08-23T07:17:53.274Z,12.60
2022-08-23T07:20:20.691Z,14.25
2022-08-23T07:22:47.935Z,15.55
2022-08-23T07:25:15.599Z,12.95
2022-08-23T07:27:48.527Z,13.90
2022-08-23T07:30:19.425Z,12.52
2022-08-23T07:32:46.953Z,13.38
2022-08-23T07:35:39.626Z,11.15
2022-08-23T07:38:07.550Z,12.65
2022-08-23T07:40:39.041Z,10.13
2022-08-23T07:43:08.515Z,10.60
2022-08-23T07:45:39.564Z,15.27
2022-08-23T07:48:10.100Z,12.55
2022-08-23T07:51:04.732Z,10.90
2022-08-23T07:53:37.889Z,14.23
2022-08-23T07:56:09.841Z,16.17
2022-08-23T07:58:55.614Z,11.55
2022-08-23T08:01:55.315Z,10.43
2022-08-23T08:04:24.727Z,9.87
2022-08-23T08:07:10.885Z,9.25
2022-08-23T08:09:43.874Z,9.75
2022-08-23T08:12:12.111Z,11.82
2022-08-23T08:14:42.676Z,11.70
2022-08-23T08:17:11.969Z,12.82
2022-08-23T08:19:59.021Z,13.80
2022-08-23T08:22:47.563Z,12.95
2022-08-23T08:25:15.771Z,13.40
2022-08-23T08:27:43.639Z,11.02
2022-08-23T08:30:12.249Z,10.90
2022-08-23T08:32:46.976Z,13.07
2022-08-23T08:35:14.700Z,12.27
2022-08-23T08:37:42.473Z,16.92
2022-08-23T08:40:10.140Z,10.10
2022-08-23T08:42:40.824Z,12.38
2022-08-23T08:45:12.390Z,11.05
2022-08-23T08:47:45.049Z,12.13
2022-08-23T08:50:24.466Z,15.52
2022-08-23T08:53:16.980Z,11.75
2022-08-23T08:56:34.793Z,11.82
2022-08-23T08:59:19.469Z,11.30
2022-08-23T09:01:48.674Z,13.23
2022-08-23T09:04:22.757Z,12.80
2022-08-23T09:07:08.122Z,14.10
2022-08-23T09:10:09.824Z,10.20
2022-08-23T09:13:21.815Z,12.00
2022-08-23T09:16:05.340Z,13.35
2022-08-23T09:18:35.833Z,10.63
2022-08-23T09:21:07.224Z,8.15
2022-08-23T09:23:42.674Z,11.02
2022-08-23T09:26:17.535Z,11.25
2022-08-23T09:28:47.970Z,13.73
2022-08-23T09:31:51.028Z,13.75
2022-08-23T09:34:24.216Z,14.73
2022-08-23T09:37:16.573Z,14.05
2022-08-23T09:42:40.601Z,11.60
2022-08-23T09:45:28.874Z,10.18
2022-08-23T09:47:58.413Z,12.00
2022-08-23T09:50:42.473Z,10.57
2022-08-23T09:53:13.064Z,11.73
2022-08-23T09:55:54.946Z,12.63
2022-08-23T09:58:36.485Z,15.95
2022-08-23T10:01:20.463Z,11.55
2022-08-23T10:04:23.334Z,13.02
2022-08-23T10:06:53.242Z,12.65
2022-08-23T10:09:28.947Z,15.32
2022-08-23T10:11:58.864Z,15.38
2022-08-23T10:14:30.761Z,14.13
2022-08-23T10:17:17.392Z,13.63
2022-08-23T10:19:52.581Z,12.55
2022-08-23T10:22:27.158Z,14.05
2022-08-23T10:25:22.324Z,13.18
2022-08-23T10:28:21.157Z,16.67
2022-08-23T10:31:01.187Z,14.10
2022-08-23T10:34:18.386Z,13.52
2022-08-23T10:36:58.298Z,13.15
2022-08-23T10:39:30.503Z,11.98
2022-08-23T10:42:24.058Z,12.90
2022-08-23T10:45:10.082Z,13.95
2022-08-23T10:47:44.624Z,14.32
2022-08-23T10:50:22.225Z,15.52
2022-08-23T10:53:13.777Z,15.73
2022-08-23T10:56:06.366Z,17.40
2022-08-23T10:58:53.766Z,14.95
2022-08-23T11:01:26.611Z,17.55
2022-08-23T11:04:03.841Z,24.35
2022-08-23T11:06:48.242Z,13.50
2022-08-23T11:09:15.466Z,18.70
2022-08-23T11:12:14.743Z,18.88
2022-08-23T11:14:58.792Z,18.25
2022-08-23T11:17:41.304Z,19.70
2022-08-23T11:20:12.393Z,22.58
2022-08-23T11:22:57.878Z,23.00
2022-08-23T11:25:25.108Z,22.42
2022-08-23T11:28:24.080Z,20.45
2022-08-23T11:31:24.867Z,19.23
2022-08-23T11:34:01.249Z,23.40
2022-08-23T11:36:30.379Z,26.98
2022-08-23T11:38:57.547Z,26.95
2022-08-23T11:41:31.665Z,21.85
2022-08-23T11:44:07.739Z,25.85
2022-08-23T11:46:48.803Z,21.10
2022-08-23T11:49:17.524Z,22.58
2022-08-23T11:51:50.704Z,24.92
2022-08-23T11:54:52.251Z,24.23
2022-08-23T11:57:29.399Z,20.00
2022-08-23T11:59:59.396Z,22.88
2022-08-23T12:02:36.899Z,23.95
2022-08-23T12:05:23.075Z,26.88
2022-08-23T12:08:06.022Z,27.35
2022-08-23T12:11:06.128Z,26.77
2022-08-23T12:13:46.848Z,22.38
2022-08-23T12:16:29.268Z,24.67
2022-08-23T12:19:01.622Z,22.55
2022-08-23T12:21:44.263Z,21.15
2022-08-23T12:24:23.092Z,21.48
2022-08-23T12:27:08.211Z,23.63
2022-08-23T12:30:16.962Z,21.40
2022-08-23T12:33:08.632Z,24.98
2022-08-23T12:36:01.573Z,18.35
2022-08-23T12:39:09.019Z,17.67
2022-08-23T12:41:52.387Z,29.13
2022-08-23T12:44:21.966Z,23.30
2022-08-23T12:46:50.475Z,18.40
2022-08-23T12:49:36.468Z,21.90
2022-08-23T12:52:12.071Z,28.00
2022-08-23T12:54:43.198Z,21.10
2022-08-23T12:57:19.502Z,25.23
2022-08-23T13:00:16.550Z,21.77
2022-08-23T13:03:18.481Z,25.13
2022-08-23T13:05:56.598Z,21.23
2022-08-23T13:08:39.826Z,20.77
2022-08-23T13:11:09.859Z,19.08
2022-08-23T13:13:42.774Z,23.27
2022-08-23T13:16:31.710Z,26.30
2022-08-23T13:19:16.668Z,25.33
2022-08-23T13:21:44.431Z,24.30
2022-08-23T13:24:38.532Z,22.00
2022-08-23T13:27:23.080Z,25.10
2022-08-23T13:29:59.525Z,20.48
2022-08-23T13:32:34.941Z,21.45
2022-08-23T13:35:31.647Z,19.95
2022-08-23T13:38:20.977Z,17.65
2022-08-23T13:41:03.141Z,25.13
2022-08-23T13:43:38.190Z,20.13
2022-08-23T13:46:13.084Z,19.90
2022-08-23T13:48:47.941Z,22.75
2022-08-23T13:51:33.635Z,17.92
2022-08-23T13:54:23.021Z,18.45
2022-08-23T13:56:53.377Z,16.13
2022-08-23T13:59:36.461Z,15.82
2022-08-23T14:02:08.380Z,19.48
2022-08-23T14:04:35.629Z,17.40
2022-08-23T14:07:03.193Z,18.33
2022-08-23T14:09:30.314Z,15.80
2022-08-23T14:11:59.807Z,13.90
2022-08-23T14:14:31.799Z,17.70
2022-08-23T14:17:02.623Z,14.93
2022-08-23T14:22:19.453Z,14.15
2022-08-23T14:24:46.717Z,18.02
2022-08-23T14:27:14.265Z,16.80
2022-08-23T14:29:41.529Z,14.02
2022-08-23T14:32:08.738Z,16.67
2022-08-23T14:34:36.074Z,16.25
2022-08-23T14:39:50.842Z,16.15
2022-08-23T14:42:22.173Z,19.00
2022-08-23T14:44:49.665Z,15.00
2022-08-23T14:47:17.325Z,16.58
2022-08-23T14:49:44.565Z,17.52
2022-08-23T14:52:14.070Z,19.50
2022-08-23T14:54:41.499Z,16.13
2022-08-23T14:57:08.722Z,13.60
2022-08-23T14:59:35.896Z,15.57
2022-08-23T15:02:05.149Z,19.25
2022-08-23T15:04:34.553Z,14.23
2022-08-23T15:07:19.920Z,12.18
2022-08-23T15:09:52.104Z,17.95
2022-08-23T15:15:12.322Z,14.70
2022-08-23T15:17:47.891Z,15.95
2022-08-23T15:20:15.598Z,16.98
2022-08-23T15:22:44.589Z,15.23
2022-08-23T15:25:13.840Z,11.95
2022-08-23T15:27:42.235Z,13.00
2022-08-23T15:30:10.891Z,13.85
2022-08-23T15:32:38.063Z,16.45
2022-08-23T15:35:07.575Z,12.88
2022-08-23T15:37:35.584Z,19.77
2022-08-23T15:40:04.129Z,14.90
2022-08-23T15:42:31.339Z,18.00
2022-08-23T15:44:58.728Z,12.38
2022-08-23T15:47:30.152Z,15.10
2022-08-23T15:49:58.828Z,17.35
2022-08-23T15:52:27.295Z,14.57
2022-08-23T15:54:55.261Z,18.00
2022-08-23T15:57:28.005Z,13.20
2022-08-23T15:59:57.415Z,19.23
2022-08-23T16:02:25.007Z,11.83
2022-08-23T16:04:52.126Z,15.85
2022-08-23T16:07:19.249Z,18.38
2022-08-23T16:09:47.385Z,15.45
2022-08-23T16:12:14.738Z,13.30
2022-08-23T16:14:41.835Z,13.70
2022-08-23T16:17:09.781Z,16.55
2022-08-23T16:19:37.082Z,13.25
2022-08-23T16:22:04.413Z,16.85
2022-08-23T16:24:31.642Z,13.93
2022-08-23T16:26:58.891Z,15.93
2022-08-23T16:29:28.838Z,17.60
2022-08-23T16:31:55.990Z,12.27
2022-08-23T16:34:23.512Z,17.35
2022-08-23T16:37:04.967Z,15.13
2022-08-23T16:39:34.621Z,16.30
2022-08-23T16:42:04.966Z,14.23
2022-08-23T16:44:33.626Z,17.55
2022-08-23T16:47:04.190Z,15.10
2022-08-23T16:49:34.924Z,15.85
2022-08-23T16:52:02.890Z,17.60
2022-08-23T16:54:30.200Z,25.73
2022-08-23T16:56:57.343Z,20.02
2022-08-23T16:59:25.523Z,15.27
2022-08-23T17:02:05.868Z,13.50
2022-08-23T17:04:38.432Z,15.15
2022-08-23T17:07:06.589Z,13.98
2022-08-23T17:09:33.756Z,12.98
2022-08-23T17:12:01.232Z,20.40
2022-08-23T17:14:28.661Z,17.15
2022-08-23T17:16:55.831Z,13.90
2022-08-23T17:19:23.153Z,16.35
2022-08-23T17:21:50.354Z,22.33
2022-08-23T17:24:17.612Z,19.23
2022-08-23T17:26:44.784Z,16.15
2022-08-23T17:29:12.474Z,17.35
2022-08-23T17:31:40.229Z,17.80
2022-08-23T17:34:07.843Z,15.55
2022-08-23T17:36:47.985Z,14.07
2022-08-23T17:39:18.662Z,18.02
2022-08-23T17:41:45.908Z,15.57
2022-08-23T17:44:15.593Z,17.88
2022-08-23T17:46:45.090Z,15.38
2022-08-23T17:49:14.400Z,16.35
2022-08-23T17:51:41.819Z,15.07
2022-08-23T17:54:10.264Z,16.30
2022-08-23T17:56:38.225Z,18.42
2022-08-23T17:59:08.831Z,16.90
2022-08-23T18:01:37.437Z,21.17
2022-08-23T18:04:06.580Z,18.67
2022-08-23T18:06:36.703Z,18.42
2022-08-23T18:11:35.068Z,21.35
2022-08-23T18:14:02.305Z,20.55
2022-08-23T18:16:34.649Z,20.40
2022-08-23T18:19:04.129Z,18.45
2022-08-23T18:21:31.653Z,18.95
2022-08-23T18:23:59.402Z,20.27
2022-08-23T18:26:46.267Z,14.05
2022-08-23T18:29:14.743Z,16.23
2022-08-23T18:31:44.082Z,16.25
2022-08-23T18:34:12.587Z,16.93
2022-08-23T18:36:40.214Z,16.85
2022-08-23T18:39:09.024Z,16.90
2022-08-23T18:41:36.263Z,17.35
2022-08-23T18:44:05.540Z,20.85
2022-08-23T18:46:37.751Z,16.67
2022-08-23T18:49:05.825Z,16.58
2022-08-23T18:51:33.134Z,19.35
2022-08-23T18:54:00.829Z,21.55
2022-08-23T18:56:28.200Z,21.42
2022-08-23T18:58:55.430Z,20.05
2022-08-23T19:01:33.664Z,16.95
2022-08-23T19:04:02.803Z,18.60
2022-08-23T19:06:30.824Z,19.77
2022-08-23T19:08:58.109Z,21.52
2022-08-23T19:11:25.383Z,19.17
2022-08-23T19:13:52.457Z,18.48
2022-08-23T19:16:21.968Z,20.05
2022-08-23T19:18:50.886Z,19.70
2022-08-23T19:21:21.595Z,19.85
2022-08-23T19:23:51.191Z,20.27
2022-08-23T19:26:22.191Z,21.55
2022-08-23T19:28:49.872Z,23.20
2022-08-23T19:31:17.412Z,27.17
2022-08-23T19:33:45.349Z,22.05
2022-08-23T19:36:35.808Z,25.05
2022-08-23T19:39:00.576Z,25.60
2022-08-23T19:41:27.780Z,23.38
2022-08-23T19:43:55.907Z,24.08
2022-08-23T19:46:23.255Z,25.98
2022-08-23T19:48:52.382Z,20.75
2022-08-23T19:51:21.559Z,23.48
2022-08-23T19:54:06.947Z,22.38
2022-08-23T19:59:09.162Z,18.88
2022-08-23T20:01:37.154Z,19.75
2022-08-23T20:04:05.435Z,23.77
2022-08-23T20:06:32.896Z,18.75
2022-08-23T20:09:00.209Z,20.83
2022-08-23T20:11:32.206Z,18.33
2022-08-23T20:14:01.496Z,12.77
2022-08-23T20:16:32.945Z,12.25
2022-08-23T20:22:57.230Z,10.85
2022-08-23T20:25:24.643Z,17.60
2022-08-23T20:27:52.087Z,11.90
2022-08-23T20:30:19.270Z,11.32
2022-08-23T20:32:46.433Z,11.35
2022-08-23T20:35:13.898Z,11.75
2022-08-23T20:37:41.172Z,15.38
2022-08-23T20:40:12.470Z,12.48
2022-08-23T20:42:39.917Z,13.63
2022-08-23T20:45:07.725Z,13.85
2022-08-23T20:47:35.671Z,11.68
2022-08-23T20:50:03.155Z,13.68
2022-08-23T20:52:34.425Z,11.35
2022-08-23T20:55:02.416Z,18.23
2022-08-23T20:57:32.018Z,13.73
2022-08-23T21:00:07.453Z,12.48
2022-08-23T21:02:34.982Z,10.77
2022-08-23T21:05:04.734Z,8.25
2022-08-23T21:07:33.852Z,9.57
2022-08-23T21:10:01.088Z,7.20
2022-08-23T21:12:28.683Z,8.73
2022-08-23T21:14:57.027Z,9.18
2022-08-23T21:17:24.399Z,10.05
2022-08-23T21:19:51.592Z,8.60
2022-08-23T21:22:18.823Z,9.88
2022-08-23T21:24:46.943Z,10.63
2022-08-23T21:27:15.877Z,8.27
2022-08-23T21:29:42.990Z,6.70
2022-08-23T21:32:10.298Z,8.43
2022-08-23T21:34:37.459Z,9.63
2022-08-23T21:37:04.717Z,8.05
2022-08-23T21:39:31.885Z,8.95
2022-08-23T21:41:59.200Z,7.90
2022-08-23T21:44:26.603Z,12.18
2022-08-23T21:46:53.788Z,10.60
2022-08-23T21:49:23.637Z,8.95
2022-08-23T21:51:51.559Z,11.20
2022-08-23T21:54:18.787Z,7.60
2022-08-23T21:56:46.194Z,9.85
2022-08-23T21:59:16.954Z,10.18
2022-08-23T22:01:45.393Z,11.10
2022-08-23T22:04:14.709Z,9.65
2022-08-23T22:06:44.251Z,9.40
2022-08-23T22:09:14.199Z,11.20
2022-08-23T22:11:43.336Z,9.90
2022-08-23T22:14:20.425Z,11.57
2022-08-23T22:16:49.626Z,11.43
2022-08-23T22:19:22.502Z,9.52
2022-08-23T22:21:51.583Z,10.00
2022-08-23T22:24:24.666Z,9.23
2022-08-23T22:26:53.286Z,11.73
2022-08-23T22:29:20.616Z,13.55
2022-08-23T22:31:48.541Z,12.82
2022-08-23T22:34:16.084Z,10.73
2022-08-23T22:36:43.219Z,11.38
2022-08-23T22:39:12.511Z,11.68
2022-08-23T22:41:40.143Z,10.90
2022-08-23T22:44:07.291Z,10.05
2022-08-23T22:46:35.317Z,8.18
2022-08-23T22:49:02.736Z,9.95
2022-08-23T22:51:32.755Z,12.00
2022-08-23T22:54:02.697Z,9.80
2022-08-23T22:56:42.768Z,9.55
2022-08-23T22:59:10.566Z,10.38
2022-08-23T23:01:44.245Z,9.07
2022-08-23T23:04:14.419Z,10.80
2022-08-23T23:06:42.051Z,11.48
2022-08-23T23:09:10.952Z,9.63
2022-08-23T23:11:40.183Z,11.13
2022-08-23T23:14:08.840Z,10.18
2022-08-23T23:16:36.513Z,14.30
2022-08-23T23:19:22.122Z,10.07
2022-08-23T23:21:52.499Z,10.98
2022-08-23T23:26:48.650Z,10.27
2022-08-23T23:29:16.885Z,9.48
2022-08-23T23:31:43.980Z,11.15
2022-08-23T23:34:11.114Z,9.77
2022-08-23T23:36:38.820Z,12.07
2022-08-23T23:39:08.687Z,9.95
2022-08-23T23:41:35.981Z,11.25
2022-08-23T23:44:03.535Z,9.38
2022-08-23T23:46:30.694Z,10.18
2022-08-23T23:48:57.831Z,10.05
2022-08-23T23:51:28.178Z,10.57
2022-08-23T23:56:25.699Z,13.55
2022-08-23T23:58:54.383Z,9.20
